Time;durP1;ratioP1;P1;durP2;ratioP2;P2;SDS_P1;SDS_P2;PMS_P1;PMS_P2;Temp;Humidity;BMP_temperature;BMP_pressure;BME280_temperature;BME280_humidity;BME280_pressure;Samples;Min_cycle;Max_cycle;Signal;HPM_P1;HPM_P2
2023/04/21 00:00:51;;;;;;;26.23;22.25;;;;;;;9.09;81.11;101246.88;3617771;39;20127;-66
2023/04/21 00:03:19;;;;;;;27.58;21.70;;;;;;;9.05;81.39;101240.78;3610144;39;20130;-67
2023/04/21 00:05:45;;;;;;;26.15;22.63;;;;;;;9.03;81.10;101239.97;3607054;39;20054;-67
2023/04/21 00:08:11;;;;;;;26.17;23.20;;;;;;;9.02;81.56;101240.94;3618393;39;20118;-68
2023/04/21 00:10:37;;;;;;;26.38;23.33;;;;;;;8.99;81.42;101237.53;3615347;39;20364;-67
2023/04/21 00:13:02;;;;;;;27.92;23.73;;;;;;;8.98;82.31;101238.50;3617965;39;20072;-68
2023/04/21 00:15:28;;;;;;;26.77;23.88;;;;;;;8.98;82.65;101230.44;3616551;39;20046;-68
2023/04/21 00:17:54;;;;;;;27.17;23.88;;;;;;;9.00;82.58;101226.72;3615595;39;20051;-69
2023/04/21 00:20:22;;;;;;;27.40;24.42;;;;;;;9.00;82.80;101226.72;3614398;39;20063;-70
2023/04/21 00:22:49;;;;;;;28.15;24.63;;;;;;;8.47;82.52;101123.03;3617313;39;20051;-69
2023/04/21 00:25:14;;;;;;;27.23;24.42;;;;;;;9.00;82.69;101204.41;3614811;39;20377;-67
2023/04/21 00:27:40;;;;;;;27.15;24.23;;;;;;;9.00;82.51;101210.63;3613746;39;20060;-68
2023/04/21 00:30:06;;;;;;;28.05;25.05;;;;;;;8.97;82.20;101216.16;3616478;39;21092;-69
2023/04/21 00:32:32;;;;;;;26.88;23.98;;;;;;;8.95;83.02;101199.28;3619895;39;20054;-70
2023/04/21 00:34:58;;;;;;;27.58;23.88;;;;;;;8.96;82.63;101197.47;3615564;39;20401;-69
2023/04/21 00:37:23;;;;;;;30.33;24.00;;;;;;;8.91;82.68;101194.13;3614882;39;20047;-69
2023/04/21 00:39:49;;;;;;;27.20;24.30;;;;;;;8.95;83.09;101204.66;3613673;39;20051;-70
2023/04/21 00:42:16;;;;;;;26.65;23.73;;;;;;;8.97;82.29;101197.38;3613019;39;20065;-70
2023/04/21 00:44:41;;;;;;;28.92;24.08;;;;;;;8.44;82.63;101099.06;3617671;39;20053;-70
2023/04/21 00:47:07;;;;;;;28.23;24.88;;;;;;;8.99;83.14;101195.50;3618499;39;20074;-68
2023/04/21 00:49:33;;;;;;;26.92;24.02;;;;;;;9.00;83.32;101202.59;3616056;39;20071;-67
2023/04/21 00:52:00;;;;;;;30.65;25.92;;;;;;;9.01;82.72;101201.66;3616056;39;20046;-67
2023/04/21 00:54:26;;;;;;;30.45;25.38;;;;;;;9.00;82.73;101205.28;3614509;39;20063;-67
2023/04/21 00:56:54;;;;;;;27.20;24.30;;;;;;;8.26;82.61;101078.47;3614389;39;20053;-68
2023/04/21 00:59:20;;;;;;;29.52;26.17;;;;;;;8.99;83.28;101200.88;3616786;39;20070;-68
2023/04/21 01:01:45;;;;;;;31.75;26.38;;;;;;;8.26;83.17;101081.16;3616242;39;20050;-68
2023/04/21 01:04:11;;;;;;;30.17;24.58;;;;;;;8.34;83.19;101089.66;3616302;39;20055;-69
2023/04/21 01:06:37;;;;;;;28.98;25.30;;;;;;;8.93;82.89;101192.25;3616446;39;20380;-68
2023/04/21 01:09:03;;;;;;;29.30;25.70;;;;;;;8.97;83.44;101199.19;3612592;39;21491;-67
2023/04/21 01:11:30;;;;;;;30.17;26.98;;;;;;;8.98;83.64;101191.09;3615067;39;20316;-67
2023/04/21 01:13:56;;;;;;;31.13;26.05;;;;;;;8.97;83.50;101183.13;3616491;39;20053;-67
2023/04/21 01:16:23;;;;;;;29.90;25.85;;;;;;;8.98;84.06;101183.06;3613539;39;20055;-68
2023/04/21 01:18:52;;;;;;;31.90;27.20;;;;;;;8.93;83.95;101173.50;3616808;39;20150;-67
2023/04/21 01:21:19;;;;;;;30.95;26.35;;;;;;;9.00;83.67;101175.78;3617112;39;20400;-66
2023/04/21 01:23:45;;;;;;;28.90;25.75;;;;;;;8.43;83.65;101069.66;3616241;39;20050;-67
2023/04/21 01:26:11;;;;;;;30.65;26.40;;;;;;;9.02;83.65;101165.84;3615308;39;20083;-67
2023/04/21 01:28:37;;;;;;;28.40;25.10;;;;;;;8.96;83.65;101154.56;3616786;39;20046;-68
2023/04/21 01:31:04;;;;;;;31.35;25.60;;;;;;;9.03;84.04;101162.22;3616295;39;20066;-70
2023/04/21 01:33:30;;;;;;;30.27;25.33;;;;;;;8.18;83.03;101027.94;3612620;39;20067;-70
2023/04/21 01:35:56;;;;;;;28.80;25.33;;;;;;;8.94;83.21;101154.63;3613023;39;20050;-73
2023/04/21 01:38:22;;;;;;;28.45;25.35;;;;;;;8.88;84.37;101149.59;3614365;39;20474;-73
2023/04/21 01:40:52;;;;;;;28.63;25.23;;;;;;;8.92;83.83;101148.50;3618023;39;20054;-74
2023/04/21 01:43:23;;;;;;;28.50;24.75;;;;;;;8.28;83.73;101049.81;3615140;39;20077;-72
2023/04/21 01:45:49;;;;;;;29.98;25.90;;;;;;;8.89;83.25;101159.38;3616143;39;20086;-72
2023/04/21 01:48:15;;;;;;;30.45;25.77;;;;;;;8.89;83.71;101156.69;3618059;39;20097;-71
2023/04/21 01:50:40;;;;;;;28.98;25.17;;;;;;;8.25;83.64;101036.59;3616773;39;20317;-70
2023/04/21 01:53:06;;;;;;;29.38;25.30;;;;;;;8.85;83.90;101136.34;3613070;39;20503;-71
2023/04/21 01:55:32;;;;;;;31.20;25.30;;;;;;;8.86;83.56;101130.03;3617265;39;20066;-70
2023/04/21 01:57:58;;;;;;;29.45;25.30;;;;;;;8.84;83.91;101127.41;3616203;39;20083;-70
2023/04/21 02:00:25;;;;;;;29.08;23.45;;;;;;;8.80;83.55;101124.97;3606862;39;20081;-70
2023/04/21 02:02:51;;;;;;;27.35;23.65;;;;;;;8.78;84.04;101116.13;3613722;39;20061;-70
2023/04/21 02:05:18;;;;;;;28.70;22.77;;;;;;;8.77;84.26;101103.69;3616173;39;20118;-69
2023/04/21 02:07:44;;;;;;;27.73;22.25;;;;;;;8.72;83.86;101100.34;3616718;39;20061;-70
2023/04/21 02:10:11;;;;;;;28.38;22.17;;;;;;;8.68;84.43;101107.69;3615090;39;20055;-68
2023/04/21 02:12:37;;;;;;;27.98;21.98;;;;;;;8.61;84.20;101095.53;3618535;39;20062;-69
2023/04/21 02:15:04;;;;;;;28.05;22.60;;;;;;;8.72;84.32;101113.75;3614165;39;20427;-69
2023/04/21 02:17:30;;;;;;;28.40;23.33;;;;;;;8.75;84.87;101108.25;3604666;39;20067;-68
2023/04/21 02:19:56;;;;;;;29.27;22.48;;;;;;;8.81;84.22;101113.31;3612031;39;20347;-70
2023/04/21 02:22:22;;;;;;;26.95;22.67;;;;;;;8.43;84.19;101041.03;3614672;39;20059;-68
2023/04/21 02:24:49;;;;;;;28.23;21.88;;;;;;;8.42;84.12;101042.00;3613862;39;20124;-68
2023/04/21 02:27:15;;;;;;;27.45;22.70;;;;;;;7.96;84.10;100957.66;3616195;39;20094;-69
2023/04/21 02:29:41;;;;;;;27.75;22.88;;;;;;;8.34;83.67;101012.00;3614318;39;20061;-68
2023/04/21 02:32:07;;;;;;;29.35;23.42;;;;;;;8.79;84.32;101102.66;3611841;39;20051;-68
2023/04/21 02:34:33;;;;;;;30.05;22.45;;;;;;;8.34;84.04;101023.59;3613161;39;20066;-68
2023/04/21 02:36:59;;;;;;;29.60;23.70;;;;;;;8.80;83.92;101100.84;3614884;39;20054;-67
2023/04/21 02:39:25;;;;;;;28.95;22.95;;;;;;;8.83;83.97;101098.03;3612744;39;20574;-67
2023/04/21 02:41:51;;;;;;;29.30;23.90;;;;;;;8.83;84.21;101100.69;3608203;39;20096;-67
2023/04/21 02:44:17;;;;;;;31.20;24.00;;;;;;;8.81;84.39;101103.44;3614237;39;20345;-67
2023/04/21 02:46:42;;;;;;;30.10;23.95;;;;;;;8.77;84.48;101090.28;3603137;39;20051;-68
2023/04/21 02:49:09;;;;;;;29.30;23.10;;;;;;;8.79;84.40;101100.00;3612330;39;20053;-68
2023/04/21 02:51:35;;;;;;;29.58;23.83;;;;;;;8.84;84.34;101099.75;3614654;39;20047;-67
2023/04/21 02:54:01;;;;;;;32.70;25.30;;;;;;;8.84;84.03;101105.09;3613221;39;20098;-67
2023/04/21 02:56:26;;;;;;;30.88;24.67;;;;;;;8.79;84.30;101096.44;3605330;39;20050;-67
2023/04/21 02:58:52;;;;;;;33.13;25.42;;;;;;;8.84;84.49;101097.06;3615823;39;20057;-67
2023/04/21 03:01:17;;;;;;;32.50;24.90;;;;;;;8.80;84.58;101092.81;3612552;39;20047;-66
2023/04/21 03:03:43;;;;;;;32.88;25.40;;;;;;;8.80;84.48;101095.50;3612392;39;20058;-67
2023/04/21 03:06:09;;;;;;;32.53;25.45;;;;;;;8.77;84.44;101090.28;3614273;39;20058;-68
2023/04/21 03:08:34;;;;;;;30.75;24.58;;;;;;;8.73;84.12;101094.06;3614488;39;20058;-68
2023/04/21 03:11:00;;;;;;;32.10;25.50;;;;;;;7.99;84.30;100971.78;3613873;39;20063;-67
2023/04/21 03:13:26;;;;;;;34.10;26.15;;;;;;;8.64;84.57;101089.16;3616665;39;20061;-70
2023/04/21 03:15:51;;;;;;;34.45;26.33;;;;;;;8.59;84.35;101090.28;3613456;39;20143;-68
2023/04/21 03:18:17;;;;;;;33.25;25.70;;;;;;;8.56;85.05;101087.75;3613821;39;20078;-68
2023/04/21 03:20:43;;;;;;;36.33;27.80;;;;;;;8.54;85.04;101094.13;3612590;39;20094;-68
2023/04/21 03:23:09;;;;;;;34.08;26.42;;;;;;;8.50;84.83;101088.03;3613943;39;20066;-68
2023/04/21 03:25:37;;;;;;;35.30;27.48;;;;;;;8.48;85.03;101083.69;3613424;39;20053;-68
2023/04/21 03:28:03;;;;;;;37.53;27.20;;;;;;;7.99;85.15;101017.28;3613922;39;20132;-68
2023/04/21 03:30:29;;;;;;;37.60;27.50;;;;;;;8.43;84.64;101094.63;3608123;39;20046;-69
2023/04/21 03:32:54;;;;;;;38.92;28.98;;;;;;;7.79;84.93;100974.53;3613525;39;20051;-68
2023/04/21 03:35:21;;;;;;;36.15;27.20;;;;;;;8.39;85.32;101079.66;3612428;39;20399;-68
2023/04/21 03:37:48;;;;;;;40.17;29.58;;;;;;;8.42;85.52;101082.19;3612822;39;20090;-68
2023/04/21 03:40:14;;;;;;;41.33;29.63;;;;;;;8.36;85.85;101069.03;3609106;39;21235;-68
2023/04/21 03:42:40;;;;;;;40.05;29.60;;;;;;;8.08;85.69;101022.19;3614892;39;20055;-68
2023/04/21 03:45:09;;;;;;;39.85;28.95;;;;;;;8.43;85.82;101085.72;3612962;39;20155;-68
2023/04/21 03:47:35;;;;;;;38.45;29.60;;;;;;;8.43;85.81;101081.22;3614284;39;20412;-68
2023/04/21 03:50:04;;;;;;;39.38;30.85;;;;;;;8.46;86.03;101078.41;3611901;39;20339;-68
2023/04/21 03:52:30;;;;;;;42.47;30.50;;;;;;;8.49;86.04;101082.75;3613161;39;20047;-68
2023/04/21 03:54:55;;;;;;;40.40;30.15;;;;;;;8.54;86.61;101089.63;3611961;39;20047;-68
2023/04/21 03:57:21;;;;;;;43.28;30.52;;;;;;;8.57;86.55;101086.78;3613634;39;20292;-68
2023/04/21 03:59:47;;;;;;;41.97;31.70;;;;;;;8.00;86.36;100986.91;3614250;39;20057;-69
2023/04/21 04:02:12;;;;;;;43.22;31.52;;;;;;;7.98;86.38;100975.38;3615075;39;20058;-68
2023/04/21 04:04:38;;;;;;;44.80;31.48;;;;;;;8.63;85.48;101087.41;3611980;39;20059;-67
2023/04/21 04:07:06;;;;;;;43.13;31.25;;;;;;;7.99;85.89;100977.13;3614029;39;20266;-69
2023/04/21 04:09:31;;;;;;;42.00;32.80;;;;;;;8.69;86.38;101087.09;3604972;39;20070;-69
2023/04/21 04:11:57;;;;;;;41.97;31.25;;;;;;;8.24;85.71;101013.41;3614377;39;20054;-67
2023/04/21 04:14:23;;;;;;;46.65;32.75;;;;;;;8.70;85.18;101083.50;3612669;39;20047;-68
2023/04/21 04:16:48;;;;;;;45.28;32.72;;;;;;;8.74;86.08;101080.59;3617707;39;20065;-68
2023/04/21 04:19:14;;;;;;;42.53;31.42;;;;;;;8.78;86.00;101076.78;3608190;39;20439;-67
2023/04/21 04:21:40;;;;;;;43.25;32.15;;;;;;;8.85;86.12;101082.75;3616562;39;20047;-67
2023/04/21 04:24:07;;;;;;;44.83;33.05;;;;;;;8.87;86.04;101072.78;3615911;39;20401;-67
2023/04/21 04:26:37;;;;;;;44.92;33.72;;;;;;;8.91;85.55;101071.72;3616014;39;20086;-67
2023/04/21 04:29:04;;;;;;;45.75;33.28;;;;;;;8.88;86.36;101065.59;3616470;39;20050;-68
2023/04/21 04:31:31;;;;;;;43.47;32.25;;;;;;;8.96;86.14;101069.63;3615590;39;20095;-67
2023/04/21 04:33:57;;;;;;;44.92;33.15;;;;;;;8.39;85.35;100977.84;3613928;39;20050;-67
2023/04/21 04:36:23;;;;;;;43.85;32.05;;;;;;;8.98;85.35;101073.13;3617823;39;20043;-67
2023/04/21 04:38:50;;;;;;;45.30;34.40;;;;;;;8.96;85.21;101080.38;3614886;39;20059;-67
2023/04/21 04:41:16;;;;;;;46.03;34.03;;;;;;;8.97;85.13;101084.78;3616222;39;20058;-66
2023/04/21 04:43:42;;;;;;;44.92;33.20;;;;;;;8.28;85.26;100972.16;3616787;39;20384;-67
2023/04/21 04:46:10;;;;;;;46.67;35.38;;;;;;;8.88;85.68;101077.22;3614472;39;20054;-66
2023/04/21 04:48:35;;;;;;;49.60;34.80;;;;;;;8.28;85.83;100981.06;3617623;39;20069;-67
2023/04/21 04:51:01;;;;;;;51.03;35.40;;;;;;;8.95;86.06;101089.38;3615327;39;20100;-67
2023/04/21 04:53:29;;;;;;;46.22;35.70;;;;;;;8.98;85.92;101082.97;3612929;39;20096;-66
2023/04/21 04:55:57;;;;;;;49.65;35.75;;;;;;;8.99;86.24;101087.38;3613159;39;20062;-67
2023/04/21 04:58:23;;;;;;;51.75;37.75;;;;;;;8.99;85.87;101088.25;3617871;39;20047;-67
2023/04/21 05:00:49;;;;;;;50.58;38.03;;;;;;;9.00;86.13;101081.06;3615523;39;20085;-68
2023/04/21 05:03:14;;;;;;;54.33;38.65;;;;;;;8.99;85.54;101080.22;3616518;39;20072;-68
2023/04/21 05:05:40;;;;;;;51.92;37.67;;;;;;;9.02;86.07;101092.59;3617871;39;20054;-68
2023/04/21 05:08:05;;;;;;;51.55;38.63;;;;;;;9.02;86.08;101090.78;3616223;39;20074;-68
2023/04/21 05:10:31;;;;;;;52.58;39.60;;;;;;;8.48;85.69;100992.59;3617387;39;20054;-69
2023/04/21 05:12:57;;;;;;;54.40;39.55;;;;;;;9.05;84.99;101084.41;3620536;39;20046;-68
2023/04/21 05:15:22;;;;;;;53.88;38.53;;;;;;;9.05;85.80;101090.63;3614460;39;20054;-68
2023/04/21 05:17:48;;;;;;;53.30;40.67;;;;;;;8.46;84.96;100998.03;3616564;39;20055;-68
2023/04/21 05:20:14;;;;;;;56.00;40.47;;;;;;;9.05;85.45;101090.63;3617382;39;20061;-69
2023/04/21 05:22:40;;;;;;;59.70;40.33;;;;;;;9.09;85.30;101094.00;3619780;39;20054;-68
2023/04/21 05:25:09;;;;;;;53.33;39.45;;;;;;;8.46;86.35;100986.44;3619094;39;20082;-68
2023/04/21 05:27:35;;;;;;;56.55;40.05;;;;;;;9.19;85.62;101100.63;3616793;39;20067;-68
2023/04/21 05:30:01;;;;;;;59.58;41.40;;;;;;;9.25;85.31;101107.50;3617270;39;20432;-68
2023/04/21 05:32:28;;;;;;;55.88;41.10;;;;;;;8.76;85.40;101019.75;3616044;39;20066;-67
2023/04/21 05:34:53;;;;;;;53.30;40.85;;;;;;;9.32;85.71;101108.03;3616342;39;20050;-68
2023/04/21 05:37:19;;;;;;;54.08;40.13;;;;;;;9.33;84.83;101115.16;3621473;39;20126;-69
2023/04/21 05:39:45;;;;;;;54.85;39.95;;;;;;;9.33;85.06;101118.72;3614532;39;20063;-68
2023/04/21 05:42:11;;;;;;;54.80;40.50;;;;;;;9.35;84.89;101119.47;3617523;39;20054;-68
2023/04/21 05:44:37;;;;;;;56.75;42.55;;;;;;;9.36;85.30;101110.50;3618405;39;20456;-68
2023/04/21 05:47:06;;;;;;;54.90;39.55;;;;;;;9.34;85.10;101115.06;3618436;39;20047;-68
2023/04/21 05:49:32;;;;;;;56.92;41.28;;;;;;;9.35;85.61;101114.09;3616172;39;20066;-69
2023/04/21 05:51:58;;;;;;;54.10;39.95;;;;;;;8.78;85.16;101011.59;3615522;39;20050;-68
2023/04/21 05:54:23;;;;;;;56.35;41.13;;;;;;;9.42;84.83;101126.28;3606699;39;20042;-68
2023/04/21 05:56:49;;;;;;;52.03;40.55;;;;;;;9.45;85.13;101119.88;3612281;39;20054;-69
2023/04/21 05:59:15;;;;;;;55.25;40.58;;;;;;;8.81;84.89;101014.13;3613853;39;20057;-69
2023/04/21 06:01:42;;;;;;;53.20;39.92;;;;;;;9.38;85.15;101099.69;3616233;39;20373;-69
2023/04/21 06:04:07;;;;;;;55.80;40.15;;;;;;;9.48;85.03;101115.22;3615675;39;20055;-69
2023/04/21 06:06:33;;;;;;;51.70;40.08;;;;;;;9.53;84.99;101114.97;3614153;39;20054;-69
2023/04/21 06:08:59;;;;;;;56.78;41.35;;;;;;;9.57;84.64;101111.16;3618294;39;20105;-68
2023/04/21 06:11:25;;;;;;;53.88;39.85;;;;;;;9.58;84.28;101106.66;3613560;39;20051;-67
2023/04/21 06:13:53;;;;;;;56.80;39.53;;;;;;;9.60;84.58;101108.31;3617031;39;20085;-67
2023/04/21 06:16:19;;;;;;;51.92;39.33;;;;;;;9.62;85.31;101100.22;3606875;39;20042;-68
2023/04/21 06:18:45;;;;;;;54.33;40.55;;;;;;;9.69;85.01;101107.84;3614084;39;20050;-67
2023/04/21 06:21:10;;;;;;;53.22;39.53;;;;;;;9.17;84.60;101013.16;3602849;39;20064;-69
2023/04/21 06:23:36;;;;;;;52.80;38.38;;;;;;;9.84;84.21;101106.16;3613893;39;20440;-68
2023/04/21 06:26:05;;;;;;;54.53;39.05;;;;;;;9.92;83.98;101103.91;3614625;39;20054;-68
2023/04/21 06:28:33;;;;;;;50.88;38.80;;;;;;;9.37;83.94;100994.19;3614761;39;20062;-68
2023/04/21 06:31:00;;;;;;;50.47;37.80;;;;;;;10.07;83.48;101106.72;3616055;39;20057;-68
2023/04/21 06:33:27;;;;;;;50.70;38.35;;;;;;;10.14;83.49;101113.47;3614641;39;20090;-69
2023/04/21 06:35:53;;;;;;;49.78;38.90;;;;;;;9.54;82.66;101004.84;3615996;39;20104;-68
2023/04/21 06:38:19;;;;;;;49.20;38.13;;;;;;;10.23;83.21;101112.97;3602935;39;20327;-68
2023/04/21 06:40:45;;;;;;;51.53;38.00;;;;;;;10.31;82.51;101108.06;3604796;39;20091;-68
2023/04/21 06:43:11;;;;;;;48.03;37.85;;;;;;;10.33;82.43;101118.72;3618862;39;20086;-67
2023/04/21 06:45:36;;;;;;;49.40;38.72;;;;;;;10.40;82.08;101115.63;3614509;39;20157;-67
2023/04/21 06:48:02;;;;;;;47.60;36.33;;;;;;;9.83;81.62;101002.41;3616214;39;20058;-68
2023/04/21 06:50:28;;;;;;;47.53;36.78;;;;;;;10.58;81.67;101108.31;3616949;39;20066;-68
2023/04/21 06:52:53;;;;;;;44.90;34.78;;;;;;;10.72;81.79;101112.91;3606717;39;20067;-68
2023/04/21 06:55:19;;;;;;;43.95;35.75;;;;;;;10.22;80.33;101007.31;3616043;39;20055;-68
2023/04/21 06:57:45;;;;;;;48.00;36.20;;;;;;;10.94;80.56;101120.56;3610209;39;20054;-68
2023/04/21 07:00:11;;;;;;;45.08;35.83;;;;;;;11.04;79.46;101118.22;3617359;39;20046;-69
2023/04/21 07:02:37;;;;;;;41.83;33.67;;;;;;;11.04;78.97;101115.53;3620679;39;20489;-69
2023/04/21 07:05:03;;;;;;;44.67;35.15;;;;;;;11.05;78.69;101117.25;3614351;39;20062;-68
2023/04/21 07:07:29;;;;;;;43.80;35.35;;;;;;;11.05;79.06;101117.25;3615130;39;20080;-68
2023/04/21 07:09:54;;;;;;;41.38;33.97;;;;;;;11.12;79.20;101113.25;3614080;39;20393;-69
2023/04/21 07:12:20;;;;;;;42.20;35.03;;;;;;;11.41;80.14;101108.78;3616462;39;20047;-69
2023/04/21 07:14:46;;;;;;;40.88;33.72;;;;;;;11.59;77.23;101118.44;3613274;39;20104;-69
2023/04/21 07:17:12;;;;;;;36.22;30.67;;;;;;;11.55;74.66;101110.66;3616460;39;20649;-69
2023/04/21 07:19:38;;;;;;;40.92;31.85;;;;;;;11.65;75.69;101117.19;3606227;39;20050;-68
2023/04/21 07:22:04;;;;;;;35.50;30.15;;;;;;;11.83;74.94;101128.66;3615286;39;20119;-69
2023/04/21 07:24:30;;;;;;;36.03;30.15;;;;;;;11.97;73.72;101117.06;3615748;39;20071;-68
2023/04/21 07:26:56;;;;;;;37.80;30.55;;;;;;;11.96;72.93;101100.03;3618730;39;20107;-70
2023/04/21 07:29:22;;;;;;;35.67;29.85;;;;;;;12.06;72.00;101111.09;3615283;39;20047;-69
2023/04/21 07:31:48;;;;;;;35.80;29.77;;;;;;;12.05;72.57;101115.63;3615638;39;20054;-68
2023/04/21 07:34:14;;;;;;;35.38;29.33;;;;;;;12.08;72.58;101103.75;3612645;39;20286;-67
2023/04/21 07:36:40;;;;;;;34.70;27.42;;;;;;;11.75;72.00;100999.84;3617470;39;20051;-68
2023/04/21 07:39:06;;;;;;;32.67;27.52;;;;;;;12.46;71.40;101103.13;3617674;39;20312;-68
2023/04/21 07:41:33;;;;;;;31.15;26.73;;;;;;;12.68;70.95;101106.13;3614197;39;20407;-68
2023/04/21 07:43:58;;;;;;;27.83;24.73;;;;;;;12.32;68.39;100996.19;3618753;39;20358;-68
2023/04/21 07:46:28;;;;;;;26.52;23.63;;;;;;;13.21;68.28;101106.19;3615280;39;20235;-68
2023/04/21 07:48:59;;;;;;;29.35;24.17;;;;;;;13.29;67.97;101082.28;3617402;39;20340;-68
2023/04/21 07:51:29;;;;;;;28.80;21.27;;;;;;;13.52;63.93;101106.81;3619721;39;20051;-68
2023/04/21 07:53:54;;;;;;;24.95;20.95;;;;;;;13.60;64.40;101102.59;3620642;39;20123;-68
2023/04/21 07:56:21;;;;;;;24.88;20.42;;;;;;;13.68;64.03;101104.75;3617250;39;20066;-69
2023/04/21 07:58:46;;;;;;;22.63;18.30;;;;;;;13.78;62.55;101111.25;3617628;39;20417;-68
2023/04/21 08:01:12;;;;;;;24.60;19.63;;;;;;;13.77;60.75;101109.53;3619562;39;20087;-68
2023/04/21 08:03:38;;;;;;;25.02;19.95;;;;;;;13.92;60.70;101111.16;3613750;39;20058;-69
2023/04/21 08:06:04;;;;;;;23.80;19.50;;;;;;;13.92;60.37;101103.03;3619289;39;20056;-68
2023/04/21 08:08:29;;;;;;;23.80;19.15;;;;;;;14.09;61.11;101098.25;3617326;39;20150;-68
2023/04/21 08:10:55;;;;;;;21.60;18.55;;;;;;;14.36;63.02;101096.22;3616277;39;20057;-68
2023/04/21 08:13:24;;;;;;;20.85;17.73;;;;;;;14.71;61.19;101100.03;3613813;39;20054;-68
2023/04/21 08:15:53;;;;;;;20.27;18.08;;;;;;;14.93;59.12;101104.69;3614471;39;20047;-68
2023/04/21 08:18:20;;;;;;;20.20;17.02;;;;;;;14.97;58.98;101096.25;3613033;39;20042;-68
2023/04/21 08:20:46;;;;;;;19.45;17.13;;;;;;;15.15;58.46;101093.94;3619878;39;20340;-69
2023/04/21 08:23:13;;;;;;;19.63;16.25;;;;;;;14.94;57.21;101031.50;3617896;39;20073;-68
2023/04/21 08:25:39;;;;;;;18.92;16.60;;;;;;;15.38;55.96;101073.22;3615789;39;20373;-68
2023/04/21 08:28:05;;;;;;;23.23;16.60;;;;;;;15.36;54.67;101077.91;3614875;39;20057;-67
2023/04/21 08:30:31;;;;;;;19.08;15.77;;;;;;;15.64;55.72;101103.69;3614893;39;20062;-68
2023/04/21 08:32:56;;;;;;;19.55;15.07;;;;;;;15.75;54.78;101102.88;3617561;39;20061;-68
2023/04/21 08:35:23;;;;;;;17.05;14.38;;;;;;;15.88;54.24;101097.34;3616261;39;20385;-68
2023/04/21 08:37:49;;;;;;;21.23;15.55;;;;;;;16.01;53.25;101092.66;3617152;39;20053;-68
2023/04/21 08:40:17;;;;;;;16.70;14.45;;;;;;;16.11;53.32;101090.06;3619482;39;20058;-68
2023/04/21 08:42:43;;;;;;;21.58;17.13;;;;;;;16.27;53.56;101093.28;3616999;39;20074;-68
2023/04/21 08:45:09;;;;;;;18.27;15.32;;;;;;;16.43;52.97;101101.88;3618038;39;20055;-68
2023/04/21 08:47:39;;;;;;;15.00;13.40;;;;;;;16.55;51.83;101086.41;3618250;39;20108;-68
2023/04/21 08:50:12;;;;;;;17.27;15.02;;;;;;;16.67;52.21;101087.25;3615153;39;20078;-68
2023/04/21 08:52:37;;;;;;;18.88;14.00;;;;;;;16.17;51.65;100986.50;3613918;39;20503;-69
2023/04/21 08:55:06;;;;;;;17.42;14.90;;;;;;;16.74;51.24;101093.03;3614019;39;20059;-68
2023/04/21 08:57:32;;;;;;;17.27;14.18;;;;;;;16.77;50.61;101084.66;3616107;39;20058;-68
2023/04/21 08:59:57;;;;;;;16.75;13.80;;;;;;;16.68;52.25;101086.25;3609639;39;20062;-68
2023/04/21 09:02:23;;;;;;;15.65;13.15;;;;;;;16.83;51.31;101079.56;3613481;39;20079;-68
2023/04/21 09:04:51;;;;;;;15.68;13.15;;;;;;;16.96;51.47;101076.69;3614295;39;20054;-68
2023/04/21 09:07:36;;;;;;;13.00;11.60;;;;;;;17.20;49.96;101075.59;3613827;39;20128;-68
2023/04/21 09:10:04;;;;;;;15.25;11.40;;;;;;;17.12;47.93;101084.38;3614313;39;20053;-69
2023/04/21 09:12:30;;;;;;;14.35;11.27;;;;;;;17.11;48.83;101082.69;3614963;39;20055;-68
2023/04/21 09:14:57;;;;;;;13.68;11.07;;;;;;;17.23;48.53;101087.06;3616680;39;20433;-68
2023/04/21 09:17:31;;;;;;;14.65;11.20;;;;;;;17.28;49.79;101067.63;3615592;39;20115;-68
2023/04/21 09:20:10;;;;;;;22.52;13.13;;;;;;;17.50;50.32;101069.34;3614448;39;20047;-69
2023/04/21 09:22:37;;;;;;;15.70;10.85;;;;;;;17.60;49.01;101072.97;3619445;39;20377;-68
2023/04/21 09:25:03;;;;;;;13.70;11.20;;;;;;;17.55;49.52;101064.38;3610117;39;20059;-68
2023/04/21 09:27:28;;;;;;;13.38;11.38;;;;;;;17.57;48.98;101076.84;3614508;39;20082;-68
2023/04/21 09:30:01;;;;;;;12.23;10.98;;;;;;;17.84;49.70;101059.13;3613870;39;20053;-68
2023/04/21 09:32:26;;;;;;;12.60;10.45;;;;;;;18.19;48.97;101050.53;3614068;39;20548;-68
2023/04/21 09:34:59;;;;;;;11.85;10.55;;;;;;;18.39;47.92;101064.19;3614393;39;20042;-68
2023/04/21 09:37:24;;;;;;;11.60;10.40;;;;;;;18.26;47.74;101068.00;3613778;39;20382;-69
2023/04/21 09:39:50;;;;;;;12.30;11.00;;;;;;;18.60;48.92;101064.09;3613865;39;20047;-69
2023/04/21 09:42:15;;;;;;;13.20;10.57;;;;;;;18.76;44.75;101061.69;3613598;39;20051;-68
2023/04/21 09:44:41;;;;;;;14.88;10.40;;;;;;;18.70;44.84;101073.97;3616911;39;20281;-69
2023/04/21 09:47:11;;;;;;;11.10;10.00;;;;;;;18.73;44.87;101065.56;3617918;39;20054;-68
2023/04/21 09:49:43;;;;;;;12.30;9.68;;;;;;;19.11;44.85;101068.44;3616253;39;20051;-68
2023/04/21 09:52:12;;;;;;;11.77;9.00;;;;;;;19.27;42.50;101070.56;3614111;39;20077;-69
2023/04/21 09:54:51;;;;;;;11.05;8.43;;;;;;;19.27;42.75;101065.13;3616325;39;20400;-68
2023/04/21 09:57:24;;;;;;;11.00;9.05;;;;;;;19.30;42.58;101056.66;3614154;39;20039;-67
2023/04/21 10:00:10;;;;;;;16.58;13.63;;;;;;;19.24;43.42;101061.69;3615695;39;20057;-68
2023/04/21 10:02:50;;;;;;;9.73;8.73;;;;;;;19.12;43.59;101057.38;3613276;39;20049;-68
2023/04/21 10:05:16;;;;;;;9.27;8.35;;;;;;;19.26;45.10;101053.38;3613189;39;20132;-68
2023/04/21 10:07:46;;;;;;;14.35;10.55;;;;;;;19.24;44.84;101047.19;3618152;39;20051;-68
2023/04/21 10:10:30;;;;;;;20.15;12.45;;;;;;;19.32;45.02;101044.59;3618308;39;20054;-68
2023/04/21 10:13:01;;;;;;;25.77;14.45;;;;;;;19.26;47.54;101039.75;3614030;39;20053;-67
2023/04/21 10:15:34;;;;;;;12.25;9.75;;;;;;;19.46;45.01;101038.69;3616740;39;20066;-67
2023/04/21 10:18:19;;;;;;;12.93;10.27;;;;;;;19.37;44.69;101036.84;3616956;39;20061;-68
2023/04/21 10:21:00;;;;;;;10.60;9.52;;;;;;;19.13;45.60;101042.78;3617744;39;20067;-67
2023/04/21 10:23:26;;;;;;;12.68;11.23;;;;;;;19.05;46.67;101033.59;3617491;39;20126;-68
2023/04/21 10:25:53;;;;;;;13.25;10.52;;;;;;;19.18;46.92;101018.66;3615334;39;20046;-67
2023/04/21 10:28:19;;;;;;;12.98;11.57;;;;;;;19.40;45.62;101043.88;3617524;39;20377;-67
2023/04/21 10:30:45;;;;;;;13.90;11.55;;;;;;;19.22;46.60;101020.09;3614638;39;20054;-67
2023/04/21 10:33:11;;;;;;;12.60;11.18;;;;;;;19.40;44.33;101032.97;3613722;39;20059;-67
2023/04/21 10:36:00;;;;;;;12.50;11.20;;;;;;;19.51;44.21;101018.31;3614649;39;20099;-68
2023/04/21 10:38:42;;;;;;;13.55;10.68;;;;;;;19.11;44.68;100908.53;3612222;39;20055;-68
2023/04/21 10:41:32;;;;;;;14.30;10.65;;;;;;;19.48;44.46;101008.56;3613856;39;20155;-67
2023/04/21 10:44:12;;;;;;;16.08;11.90;;;;;;;19.21;44.14;101009.31;3612893;39;20394;-67
2023/04/21 10:46:43;;;;;;;11.50;10.35;;;;;;;18.99;46.36;101013.22;3615252;39;20055;-68
2023/04/21 10:49:20;;;;;;;13.15;11.18;;;;;;;18.99;46.03;100999.59;3614210;39;20401;-68
2023/04/21 10:51:58;;;;;;;46.92;25.83;;;;;;;19.28;49.22;100990.50;3615671;39;20054;-69
2023/04/21 10:54:40;;;;;;;12.77;10.80;;;;;;;19.35;44.73;100997.13;3614499;39;20169;-68
2023/04/21 10:57:10;;;;;;;41.67;19.08;;;;;;;19.23;47.72;100915.50;3617377;39;20047;-69
2023/04/21 10:59:36;;;;;;;11.93;10.15;;;;;;;19.95;45.59;100997.63;3616839;39;20131;-68
2023/04/21 11:02:07;;;;;;;12.43;11.18;;;;;;;19.98;45.30;100993.72;3616605;39;20462;-67
2023/04/21 11:04:33;;;;;;;16.67;10.77;;;;;;;19.70;44.28;100991.00;3609252;39;20402;-67
2023/04/21 11:07:07;;;;;;;14.90;11.82;;;;;;;19.27;44.85;100995.13;3617453;39;20076;-67
2023/04/21 11:09:35;;;;;;;30.85;14.82;;;;;;;19.00;47.33;100995.91;3615097;39;20402;-67
2023/04/21 11:12:06;;;;;;;16.48;13.20;;;;;;;18.73;47.33;100975.69;3615274;39;20629;-67
2023/04/21 11:14:35;;;;;;;25.63;16.52;;;;;;;18.58;49.34;100974.38;3619263;39;20081;-68